createdAt,value
2022-12-23T00:01:51.256Z,294.07
2022-12-23T00:04:18.285Z,284.17
2022-12-23T00:06:45.238Z,278.40
2022-12-23T00:09:12.202Z,282.67
2022-12-23T00:11:58.973Z,270.17
2022-12-23T00:14:46.465Z,285.20
2022-12-23T00:17:28.334Z,275.90
2022-12-23T00:19:55.360Z,273.77
2022-12-23T00:22:42.132Z,236.63
2022-12-23T00:25:09.381Z,275.13
2022-12-23T00:27:37.827Z,250.00
2022-12-23T00:30:07.253Z,267.40
2022-12-23T00:32:34.260Z,287.02
2022-12-23T00:35:01.069Z,304.13
2022-12-23T00:37:31.837Z,295.23
2022-12-23T00:40:17.100Z,285.30
2022-12-23T00:42:55.728Z,276.13
2022-12-23T00:45:22.747Z,289.60
2022-12-23T00:48:08.364Z,286.37
2022-12-23T00:50:39.581Z,287.57
2022-12-23T00:53:06.989Z,285.07
2022-12-23T00:55:33.838Z,287.47
2022-12-23T00:58:00.763Z,291.90
2022-12-23T01:00:46.702Z,280.33
2022-12-23T01:03:34.072Z,287.03
2022-12-23T01:06:02.602Z,258.60
2022-12-23T01:08:29.885Z,269.33
2022-12-23T01:10:56.824Z,260.27
2022-12-23T01:13:23.788Z,235.50
2022-12-23T01:15:50.589Z,218.30
2022-12-23T01:18:17.389Z,232.50
2022-12-23T01:20:44.226Z,248.60
2022-12-23T01:23:10.999Z,244.17
2022-12-23T01:25:37.848Z,268.00
2022-12-23T01:28:04.783Z,257.00
2022-12-23T01:30:31.571Z,234.43
2022-12-23T01:32:58.421Z,238.77
2022-12-23T01:35:25.252Z,256.47
2022-12-23T01:37:52.050Z,232.80
2022-12-23T01:40:18.955Z,246.30
2022-12-23T01:42:47.395Z,237.50
2022-12-23T01:45:20.581Z,248.57
2022-12-23T01:48:06.261Z,253.63
2022-12-23T01:50:43.124Z,248.50
2022-12-23T01:53:15.911Z,245.47
2022-12-23T01:55:54.583Z,264.97
2022-12-23T01:58:27.899Z,255.88
2022-12-23T02:01:15.885Z,240.30
2022-12-23T02:03:44.163Z,252.53
2022-12-23T02:06:42.918Z,250.43
2022-12-23T02:09:22.536Z,248.38
2022-12-23T02:12:10.408Z,229.73
2022-12-23T02:15:14.430Z,233.10
2022-12-23T02:17:56.150Z,230.60
2022-12-23T02:20:44.049Z,223.67
2022-12-23T02:23:35.731Z,235.50
2022-12-23T02:26:21.365Z,226.73
2022-12-23T02:29:32.742Z,233.17
2022-12-23T02:32:26.072Z,216.43
2022-12-23T02:35:34.764Z,219.33
2022-12-23T02:38:16.539Z,200.13
2022-12-23T02:41:04.892Z,191.83
2022-12-23T02:43:46.337Z,182.10
2022-12-23T02:46:39.463Z,184.97
2022-12-23T02:49:15.432Z,177.83
2022-12-23T02:51:46.700Z,172.57
2022-12-23T02:54:18.789Z,159.80
2022-12-23T02:56:50.228Z,148.10
2022-12-23T02:59:22.155Z,152.53
2022-12-23T04:43:06.698Z,140.30
2022-12-23T04:45:33.504Z,148.77
2022-12-23T04:48:00.382Z,141.70
2022-12-23T04:50:27.233Z,137.40
2022-12-23T04:52:54.100Z,132.60
2022-12-23T04:55:20.956Z,128.07
2022-12-23T04:57:47.877Z,122.77
2022-12-23T05:00:15.210Z,130.47
2022-12-23T05:02:42.117Z,146.13
2022-12-23T05:05:09.203Z,146.40
2022-12-23T07:26:23.383Z,247.30
2022-12-23T07:28:50.225Z,227.10
2022-12-23T07:31:17.209Z,215.83
2022-12-23T07:33:44.163Z,181.57
2022-12-23T07:36:11.067Z,165.90
2022-12-23T07:38:38.104Z,157.60
2022-12-23T07:41:05.077Z,139.50
2022-12-23T07:43:32.171Z,136.97
2022-12-23T07:46:00.684Z,145.27
2022-12-23T07:48:28.347Z,147.68
2022-12-23T07:51:01.139Z,130.40
2022-12-23T07:53:28.445Z,125.33
2022-12-23T07:55:56.770Z,150.40
2022-12-23T07:58:24.405Z,121.10
2022-12-23T08:00:51.283Z,117.93
2022-12-23T08:03:18.211Z,111.50
2022-12-23T08:05:45.265Z,113.23
2022-12-23T08:08:12.780Z,121.50
2022-12-23T08:10:46.185Z,107.10
2022-12-23T08:13:15.347Z,117.23
2022-12-23T08:15:42.140Z,115.80
2022-12-23T08:18:09.063Z,107.70
2022-12-23T08:20:36.061Z,111.80
2022-12-23T08:23:02.908Z,116.23
2022-12-23T08:25:29.874Z,121.27
2022-12-23T08:27:56.687Z,120.33
2022-12-23T08:30:23.573Z,112.53
2022-12-23T08:32:50.505Z,113.00
2022-12-23T08:35:17.473Z,107.10
2022-12-23T08:37:44.464Z,115.03
2022-12-23T08:40:12.219Z,103.33
2022-12-23T08:42:39.171Z,107.30
2022-12-23T08:45:06.388Z,105.87
2022-12-23T08:47:34.779Z,97.18
2022-12-23T08:50:01.681Z,90.63
2022-12-23T08:52:28.624Z,90.50
2022-12-23T08:54:55.492Z,99.17
2022-12-23T08:57:22.287Z,97.37
2022-12-23T08:59:49.207Z,100.57
2022-12-23T09:02:16.561Z,92.73
2022-12-23T09:04:43.577Z,96.33
2022-12-23T09:07:10.399Z,89.37
2022-12-23T09:09:38.251Z,89.33
2022-12-23T09:12:05.330Z,97.47
2022-12-23T09:14:32.167Z,91.17
2022-12-23T09:16:59.117Z,101.77
2022-12-23T09:19:26.075Z,98.23
2022-12-23T09:21:52.946Z,97.40
2022-12-23T09:24:19.827Z,101.07
2022-12-23T09:26:46.688Z,110.00
2022-12-23T09:29:13.615Z,102.90
2022-12-23T09:31:40.620Z,100.07
2022-12-23T09:34:07.524Z,105.33
2022-12-23T09:36:34.478Z,105.77
2022-12-23T09:39:01.429Z,105.27
2022-12-23T09:41:39.203Z,105.50
2022-12-23T09:44:26.737Z,99.97
2022-12-23T09:47:04.753Z,105.73
2022-12-23T09:49:32.811Z,109.10
2022-12-23T09:52:05.322Z,105.20
2022-12-23T09:54:47.706Z,102.27
2022-12-23T09:57:21.444Z,104.87
2022-12-23T10:00:23.965Z,109.50
2022-12-23T10:03:09.577Z,104.90
2022-12-23T10:05:40.606Z,110.80
2022-12-23T10:08:16.696Z,108.10
2022-12-23T10:10:48.674Z,111.80
2022-12-23T10:13:25.227Z,124.47
2022-12-23T10:15:53.206Z,124.00
2022-12-23T10:18:41.552Z,119.47
2022-12-23T10:21:17.903Z,119.67
2022-12-23T10:23:50.471Z,122.47
2022-12-23T10:26:26.184Z,127.17
2022-12-23T10:29:08.501Z,127.07
2022-12-23T10:31:56.870Z,116.87
2022-12-23T10:34:58.953Z,133.23
2022-12-23T10:37:41.934Z,126.13
2022-12-23T10:40:17.956Z,126.17
2022-12-23T10:43:07.846Z,128.90
2022-12-23T10:45:44.048Z,135.33
2022-12-23T10:48:33.078Z,121.30
2022-12-23T10:51:17.586Z,121.40
2022-12-23T10:53:59.355Z,121.23
2022-12-23T10:56:28.347Z,107.93
2022-12-23T10:58:57.999Z,113.40
2022-12-23T11:01:27.432Z,120.93
2022-12-23T11:04:00.702Z,109.85
2022-12-23T11:06:33.253Z,112.50
2022-12-23T11:09:05.415Z,113.28
2022-12-23T11:12:00.277Z,106.37
2022-12-23T11:14:51.536Z,113.10
2022-12-23T11:17:22.998Z,116.15
2022-12-23T11:20:12.911Z,110.27
2022-12-23T11:23:07.180Z,102.40
2022-12-23T11:25:42.888Z,96.78
2022-12-23T11:28:12.570Z,99.20
2022-12-23T11:31:01.232Z,99.53
2022-12-23T11:33:34.449Z,101.28
2022-12-23T11:36:02.975Z,97.23
2022-12-23T11:38:30.168Z,97.40
2022-12-23T11:40:57.779Z,99.93
2022-12-23T11:43:26.734Z,92.67
2022-12-23T11:46:17.723Z,95.43
2022-12-23T11:48:51.319Z,93.50
2022-12-23T11:51:25.841Z,89.33
2022-12-23T11:54:00.051Z,75.53
2022-12-23T11:56:28.640Z,84.30
2022-12-23T11:59:05.422Z,77.00
2022-12-23T12:01:32.807Z,79.97
2022-12-23T12:04:20.834Z,69.63
2022-12-23T12:06:56.350Z,74.77
2022-12-23T12:09:25.167Z,56.50
2022-12-23T12:12:03.828Z,54.50
2022-12-23T12:14:48.577Z,45.78
2022-12-23T12:17:33.489Z,41.97
2022-12-23T12:20:39.244Z,34.25
2022-12-23T12:23:21.539Z,40.37
2022-12-23T12:26:03.010Z,35.15
2022-12-23T12:28:39.028Z,35.40
2022-12-23T12:31:15.572Z,36.90
2022-12-23T12:33:51.179Z,37.65
2022-12-23T12:36:32.971Z,33.22
2022-12-23T12:39:00.443Z,35.92
2022-12-23T12:41:48.508Z,36.75
2022-12-23T12:44:43.314Z,37.45
2022-12-23T12:47:44.813Z,37.47
2022-12-23T12:50:11.687Z,35.17
2022-12-23T12:52:42.082Z,34.05
2022-12-23T12:55:22.998Z,33.50
2022-12-23T12:57:49.892Z,34.05
2022-12-23T13:00:19.508Z,27.02
2022-12-23T13:03:01.602Z,24.90
2022-12-23T13:05:56.791Z,26.35
2022-12-23T13:08:51.339Z,22.88
2022-12-23T13:11:28.981Z,23.15
2022-12-23T13:14:12.727Z,25.38
2022-12-23T13:16:52.772Z,22.63
2022-12-23T13:19:42.543Z,25.08
2022-12-23T13:22:15.425Z,22.55
2022-12-23T13:24:55.178Z,25.77
2022-12-23T13:27:34.581Z,24.00
2022-12-23T13:30:15.011Z,25.75
2022-12-23T13:32:48.100Z,32.70
2022-12-23T13:36:11.331Z,27.60
2022-12-23T13:38:56.813Z,18.40
2022-12-23T13:41:36.149Z,13.75
2022-12-23T13:44:06.448Z,13.15
2022-12-23T13:46:54.899Z,11.57
2022-12-23T13:49:30.560Z,11.00
2022-12-23T13:52:22.141Z,10.50
2022-12-23T13:55:22.932Z,12.10
2022-12-23T13:58:20.458Z,15.05
2022-12-23T14:01:08.431Z,10.10
2022-12-23T14:03:37.531Z,15.38
2022-12-23T14:06:26.254Z,15.77
2022-12-23T14:08:55.011Z,15.25
2022-12-23T14:11:30.833Z,19.58
2022-12-23T14:14:04.008Z,23.10
2022-12-23T14:16:49.279Z,23.50
2022-12-23T14:19:18.944Z,30.15
2022-12-23T14:22:11.016Z,25.83
2022-12-23T14:24:50.049Z,17.45
2022-12-23T14:30:11.515Z,26.38
2022-12-23T14:32:52.042Z,10.43
2022-12-23T14:35:27.206Z,21.17
2022-12-23T14:38:31.314Z,27.17
2022-12-23T14:40:59.730Z,27.73
2022-12-23T14:43:45.915Z,32.57
2022-12-23T14:46:34.849Z,28.65
2022-12-23T14:49:29.657Z,24.80
2022-12-23T14:51:52.119Z,30.40
2022-12-23T14:54:38.761Z,27.92
2022-12-23T14:57:15.963Z,27.85
2022-12-23T14:59:56.287Z,29.38
2022-12-23T15:02:34.025Z,46.05
2022-12-23T15:05:01.921Z,43.70
2022-12-23T15:07:39.420Z,51.15
2022-12-23T15:10:17.916Z,42.70
2022-12-23T15:12:49.384Z,43.03
2022-12-23T15:15:20.663Z,47.50
2022-12-23T15:17:48.851Z,46.65
2022-12-23T15:20:26.701Z,53.67
2022-12-23T15:22:53.589Z,56.92
2022-12-23T15:25:33.689Z,60.72
2022-12-23T15:28:03.128Z,61.78
2022-12-23T15:33:16.127Z,61.60
2022-12-23T15:35:52.744Z,51.58
2022-12-23T15:38:22.455Z,51.20
2022-12-23T15:41:02.198Z,43.40
2022-12-23T15:43:29.874Z,41.78
2022-12-23T15:46:09.059Z,40.90
2022-12-23T15:48:38.028Z,38.80
2022-12-23T15:51:14.308Z,36.58
2022-12-23T15:53:45.496Z,20.15
2022-12-23T15:56:29.841Z,17.55
2022-12-23T15:58:57.303Z,19.38
2022-12-23T16:01:25.466Z,16.02
2022-12-23T16:03:57.110Z,15.85
2022-12-23T16:06:33.094Z,14.77
2022-12-23T16:09:06.773Z,13.40
2022-12-23T16:11:42.326Z,10.38
2022-12-23T16:14:33.337Z,14.60
2022-12-23T16:17:13.677Z,14.75
2022-12-23T16:19:53.992Z,10.68
2022-12-23T16:22:20.855Z,11.52
2022-12-23T16:24:52.595Z,15.10
2022-12-23T16:27:32.513Z,10.45
2022-12-23T16:30:02.795Z,13.60
2022-12-23T16:32:29.752Z,23.48
2022-12-23T16:34:56.686Z,13.82
2022-12-23T16:37:24.791Z,19.83
2022-12-23T16:39:51.778Z,18.08
2022-12-23T16:42:19.226Z,13.93
2022-12-23T16:44:46.089Z,19.42
2022-12-23T16:47:17.589Z,24.15
2022-12-23T16:49:45.327Z,28.00
2022-12-23T16:52:14.416Z,27.52
2022-12-23T16:54:42.717Z,32.70
2022-12-23T16:57:10.662Z,31.80
2022-12-23T16:59:41.197Z,32.92
2022-12-23T17:02:20.799Z,36.17
2022-12-23T17:04:47.681Z,32.00
2022-12-23T17:07:14.568Z,31.10
2022-12-23T17:09:41.489Z,29.63
2022-12-23T17:12:10.170Z,30.30
2022-12-23T17:14:37.094Z,35.72
2022-12-23T17:17:13.364Z,44.23
2022-12-23T17:19:40.387Z,42.07
2022-12-23T17:22:12.518Z,55.97
2022-12-23T17:24:39.605Z,65.03
2022-12-23T17:27:15.182Z,64.47
2022-12-23T17:29:42.336Z,64.93
2022-12-23T17:32:18.229Z,75.07
2022-12-23T17:34:45.453Z,75.03
2022-12-23T17:37:14.596Z,76.70
2022-12-23T17:39:43.079Z,73.32
2022-12-23T17:42:28.228Z,76.70
2022-12-23T17:44:55.090Z,80.97
2022-12-23T17:47:22.799Z,76.67
2022-12-23T17:49:49.895Z,75.33
2022-12-23T17:52:19.912Z,77.40
2022-12-23T17:54:48.927Z,77.50
2022-12-23T17:57:25.358Z,79.28
2022-12-23T17:59:53.903Z,79.27
2022-12-23T18:02:32.435Z,88.88
2022-12-23T18:04:59.975Z,86.50
2022-12-23T18:07:26.925Z,78.80
2022-12-23T18:09:54.207Z,81.93
2022-12-23T18:12:39.868Z,78.70
2022-12-23T18:15:18.614Z,80.40
2022-12-23T18:17:45.517Z,76.70
2022-12-23T18:20:18.307Z,81.30
2022-12-23T18:22:50.660Z,82.20
2022-12-23T18:25:27.782Z,92.47
2022-12-23T18:27:54.882Z,97.57
2022-12-23T18:30:22.566Z,94.33
2022-12-23T18:32:49.457Z,94.67
2022-12-23T18:35:30.859Z,88.53
2022-12-23T18:37:59.382Z,102.83
2022-12-23T18:40:32.571Z,113.38
2022-12-23T18:43:00.344Z,162.83
2022-12-23T18:45:38.669Z,138.13
2022-12-23T18:48:07.753Z,152.13
2022-12-23T18:50:37.082Z,136.27
2022-12-23T18:53:05.009Z,133.50
2022-12-23T18:55:32.102Z,139.00
2022-12-23T18:58:00.752Z,133.03
2022-12-23T19:00:30.762Z,132.23
2022-12-23T19:02:58.014Z,134.50
2022-12-23T19:05:28.166Z,132.40
2022-12-23T19:07:57.732Z,147.90
2022-12-23T19:10:29.936Z,140.37
2022-12-23T19:12:57.089Z,140.47
2022-12-23T19:15:24.410Z,136.17
2022-12-23T19:17:51.272Z,128.60
2022-12-23T19:20:20.623Z,146.70
2022-12-23T19:22:48.246Z,142.05
2022-12-23T19:25:18.348Z,129.30
2022-12-23T19:27:45.930Z,137.03
2022-12-23T19:30:16.640Z,140.40
2022-12-23T19:32:44.081Z,142.47
2022-12-23T19:35:15.215Z,146.77
2022-12-23T19:37:42.868Z,157.97
2022-12-23T19:40:10.372Z,142.40
2022-12-23T19:42:39.048Z,135.53
2022-12-23T19:45:08.683Z,171.07
2022-12-23T19:47:36.345Z,215.87
2022-12-23T19:50:04.400Z,181.43
2022-12-23T19:52:34.684Z,195.30
2022-12-23T19:55:01.552Z,166.77
2022-12-23T19:57:28.492Z,170.00
2022-12-23T19:59:55.393Z,173.27
2022-12-23T20:02:23.652Z,221.00
2022-12-23T20:04:50.674Z,230.43
2022-12-23T20:07:17.614Z,302.07
2022-12-23T20:09:44.544Z,476.20
2022-12-23T20:12:11.595Z,415.63
2022-12-23T20:14:38.519Z,309.57
2022-12-23T20:17:05.439Z,321.13
2022-12-23T20:19:32.785Z,297.67
2022-12-23T20:22:00.103Z,277.63
2022-12-23T20:24:26.996Z,281.03
2022-12-23T20:26:53.891Z,234.87
2022-12-23T20:29:20.874Z,305.93
2022-12-23T20:31:47.755Z,180.17
2022-12-23T20:34:16.694Z,266.73
2022-12-23T20:36:43.819Z,319.42
2022-12-23T20:39:10.690Z,259.77
2022-12-23T20:41:37.525Z,191.90
2022-12-23T20:46:51.717Z,258.97
2022-12-23T20:49:18.720Z,270.73
2022-12-23T20:51:45.600Z,370.20
2022-12-23T20:54:12.928Z,338.37
2022-12-23T20:56:39.801Z,428.50
2022-12-23T20:59:06.788Z,341.73
2022-12-23T21:01:36.437Z,380.00
2022-12-23T21:04:09.945Z,362.93
2022-12-23T21:06:37.136Z,353.30
2022-12-23T21:09:05.965Z,361.10
2022-12-23T21:11:36.335Z,286.55
2022-12-23T21:14:06.831Z,359.93
2022-12-23T21:16:35.492Z,415.30
2022-12-23T21:19:03.151Z,381.23
2022-12-23T21:21:32.012Z,376.37
2022-12-23T21:24:02.390Z,364.23
2022-12-23T21:26:34.668Z,376.47
2022-12-23T21:29:16.210Z,362.80
2022-12-23T21:31:49.142Z,312.07
2022-12-23T21:34:25.835Z,290.17
2022-12-23T21:37:06.825Z,307.97
2022-12-23T21:39:54.614Z,317.20
2022-12-23T21:42:26.564Z,285.80
2022-12-23T21:44:53.492Z,247.37
2022-12-23T21:47:20.406Z,228.97
2022-12-23T21:49:47.406Z,220.10
2022-12-23T21:52:14.624Z,236.00
2022-12-23T21:54:41.516Z,227.03
2022-12-23T21:57:08.416Z,211.13
2022-12-23T21:59:35.759Z,224.43
2022-12-23T22:02:02.768Z,202.50
2022-12-23T22:04:29.633Z,207.60
2022-12-23T22:06:56.582Z,188.50
2022-12-23T22:09:24.688Z,203.53
2022-12-23T22:11:52.712Z,155.93
2022-12-23T22:14:19.934Z,161.57
2022-12-23T22:16:47.211Z,150.47
2022-12-23T22:19:14.264Z,133.03
2022-12-23T22:21:42.867Z,188.87
2022-12-23T22:24:10.229Z,204.38
2022-12-23T22:26:37.500Z,201.43
2022-12-23T22:29:06.224Z,193.97
2022-12-23T22:31:38.372Z,198.02
2022-12-23T22:34:06.302Z,184.80
2022-12-23T22:36:34.294Z,169.47
2022-12-23T22:39:02.243Z,164.37
2022-12-23T22:41:30.091Z,151.20
2022-12-23T22:43:57.281Z,160.13
2022-12-23T22:46:24.940Z,194.17
2022-12-23T22:48:52.558Z,192.07
2022-12-23T22:51:23.607Z,195.33
2022-12-23T22:53:50.562Z,209.10
2022-12-23T22:56:18.940Z,194.97
2022-12-23T22:58:45.853Z,164.80
